Time;durP1;ratioP1;P1;durP2;ratioP2;P2;SDS_P1;SDS_P2;PMS_P1;PMS_P2;Temp;Humidity;BMP_temperature;BMP_pressure;BME280_temperature;BME280_humidity;BME280_pressure;Samples;Min_cycle;Max_cycle;Signal;HPM_P1;HPM_P2
2022/09/26 00:02:10;;;;;;;0.10;0.10;;;;;;;8.09;86.92;98744.75;5045278;28;20068;-75
2022/09/26 00:04:36;;;;;;;0.10;0.10;;;;;;;8.06;87.00;98737.94;5045354;28;20558;-75
2022/09/26 00:07:02;;;;;;;0.10;0.10;;;;;;;8.09;87.01;98744.75;5044488;28;20057;-76
2022/09/26 00:09:30;;;;;;;0.10;0.10;;;;;;;8.09;86.80;98748.28;5045719;28;20076;-76
2022/09/26 00:11:56;;;;;;;0.10;0.10;;;;;;;8.03;86.60;98746.69;5043824;28;20057;-76
2022/09/26 00:14:27;;;;;;;0.40;0.10;;;;;;;8.00;85.85;98744.53;5043976;28;20048;-77
2022/09/26 00:16:54;;;;;;;0.10;0.10;;;;;;;7.99;85.54;98747.53;5028798;28;20067;-78
2022/09/26 00:19:20;;;;;;;0.10;0.10;;;;;;;7.95;85.73;98745.38;5043377;28;20318;-76
2022/09/26 00:21:47;;;;;;;0.10;0.10;;;;;;;7.96;85.78;98746.22;5043079;28;20081;-77
2022/09/26 00:24:13;;;;;;;0.10;0.10;;;;;;;7.88;85.84;98725.84;5041995;28;20578;-77
2022/09/26 00:26:41;;;;;;;0.10;0.10;;;;;;;7.94;85.81;98740.22;5019828;28;20059;-77
2022/09/26 00:29:09;;;;;;;0.10;0.10;;;;;;;8.02;85.76;98744.25;5023183;28;20081;-77
2022/09/26 00:31:38;;;;;;;0.10;0.10;;;;;;;7.97;85.31;98738.84;5022986;28;20073;-77
2022/09/26 00:34:06;;;;;;;0.10;0.10;;;;;;;8.00;85.22;98751.88;5024236;28;20155;-79
2022/09/26 00:36:32;;;;;;;0.10;0.10;;;;;;;7.93;84.99;98753.03;5036867;28;20480;-78
2022/09/26 00:38:59;;;;;;;0.10;0.10;;;;;;;7.93;85.27;98750.31;5047451;28;20077;-76
2022/09/26 00:41:25;;;;;;;0.10;0.10;;;;;;;7.87;85.05;98745.97;5024912;28;20045;-77
2022/09/26 00:43:55;;;;;;;0.00;0.00;;;;;;;7.91;84.82;98763.38;5006276;28;20081;-78
2022/09/26 00:46:29;;;;;;;0.10;0.10;;;;;;;7.87;84.65;98765.03;5026376;28;20135;-77
2022/09/26 00:49:03;;;;;;;0.10;0.10;;;;;;;7.83;84.57;98755.81;5042645;28;20381;-78
2022/09/26 00:51:31;;;;;;;0.10;0.10;;;;;;;7.81;84.64;98766.16;5023323;28;20056;-76
2022/09/26 00:53:58;;;;;;;;;;;;;;;7.75;84.64;98761.88;5024523;28;20063;-78
2022/09/26 00:56:29;;;;;;;0.10;0.10;;;;;;;7.68;84.54;98755.91;5005133;28;19987;-77
2022/09/26 00:59:01;;;;;;;0.10;0.10;;;;;;;7.64;84.77;98759.19;5043228;28;20075;-74
2022/09/26 01:01:28;;;;;;;0.10;0.10;;;;;;;7.61;84.84;98767.09;5042838;28;20053;-76
2022/09/26 01:03:56;;;;;;;0.10;0.10;;;;;;;7.52;85.22;98755.97;5026383;28;20413;-75
2022/09/26 01:06:23;;;;;;;0.20;0.10;;;;;;;7.57;85.35;98769.56;5045858;28;20049;-76
2022/09/26 01:08:55;;;;;;;0.00;0.00;;;;;;;7.55;85.72;98766.31;5008341;28;20111;-76
2022/09/26 01:11:22;;;;;;;0.10;0.10;;;;;;;7.55;86.03;98765.50;5020281;28;20060;-76
2022/09/26 01:13:50;;;;;;;0.00;0.00;;;;;;;7.60;86.12;98768.19;5022169;28;20423;-76
2022/09/26 01:16:18;;;;;;;0.10;0.10;;;;;;;7.64;86.02;98770.06;5023450;28;20049;-76
2022/09/26 01:18:45;;;;;;;0.10;0.10;;;;;;;7.58;85.73;98760.31;5030179;28;20512;-76
2022/09/26 01:21:41;;;;;;;0.07;0.07;;;;;;;7.53;85.73;98760.34;5038993;28;20045;-75
2022/09/26 01:24:37;;;;;;;0.10;0.10;;;;;;;7.55;85.07;98760.06;5035503;28;20540;-76
2022/09/26 01:27:35;;;;;;;0.10;0.10;;;;;;;7.54;84.77;98763.88;5004115;28;20053;-76
2022/09/26 01:30:13;;;;;;;0.10;0.10;;;;;;;7.46;84.66;98766.06;5023873;28;20508;-76
2022/09/26 01:33:15;;;;;;;0.40;0.10;;;;;;;7.42;84.59;98770.44;5045789;28;20072;-77
2022/09/26 01:36:10;;;;;;;0.10;0.10;;;;;;;7.40;84.46;98767.19;5027317;28;20059;-78
2022/09/26 01:38:48;;;;;;;0.10;0.10;;;;;;;7.38;84.45;98759.31;5060275;28;20052;-77
2022/09/26 01:41:32;;;;;;;0.10;0.10;;;;;;;7.19;84.57;98726.50;5043977;28;20041;-78
2022/09/26 01:44:07;;;;;;;0.05;0.05;;;;;;;7.48;84.98;98763.88;5045001;28;20044;-78
2022/09/26 01:46:41;;;;;;;0.10;0.10;;;;;;;7.51;85.07;98768.78;5061456;28;20068;-79
2022/09/26 01:49:15;;;;;;;0.10;0.10;;;;;;;7.52;85.21;98769.59;5061285;28;20044;-77
2022/09/26 01:51:48;;;;;;;0.10;0.10;;;;;;;7.57;85.22;98772.31;5061599;28;20068;-77
2022/09/26 01:54:18;;;;;;;0.10;0.10;;;;;;;7.59;85.24;98783.72;5062674;28;20055;-77
2022/09/26 01:56:47;;;;;;;0.10;0.10;;;;;;;7.60;85.54;98774.47;5064662;28;20189;-75
2022/09/26 01:59:19;;;;;;;0.10;0.10;;;;;;;7.65;85.26;98779.84;5061836;28;20056;-78
2022/09/26 02:01:55;;;;;;;0.10;0.10;;;;;;;7.63;85.19;98779.34;5042748;28;20048;-77
2022/09/26 02:04:26;;;;;;;0.10;0.10;;;;;;;7.54;85.41;98780.19;5062888;28;20139;-76
2022/09/26 02:06:56;;;;;;;0.10;0.10;;;;;;;7.53;85.48;98784.81;5062315;28;20045;-76
2022/09/26 02:09:28;;;;;;;0.10;0.10;;;;;;;7.60;85.71;98784.50;5061033;28;20045;-76
2022/09/26 02:12:02;;;;;;;0.10;0.10;;;;;;;7.68;85.85;98792.09;5060182;28;20043;-76
2022/09/26 02:14:31;;;;;;;0.10;0.10;;;;;;;7.72;85.67;98793.16;5061475;28;20068;-76
2022/09/26 02:17:04;;;;;;;0.10;0.10;;;;;;;7.71;85.42;98787.97;5044081;28;20052;-75
2022/09/26 02:19:37;;;;;;;0.10;0.10;;;;;;;7.72;84.75;98795.88;5064949;28;20070;-76
2022/09/26 02:22:03;;;;;;;0.10;0.10;;;;;;;7.69;84.39;98798.34;5056599;28;20056;-74
2022/09/26 02:24:29;;;;;;;0.10;0.10;;;;;;;7.56;84.20;98786.97;5042305;28;20401;-74
2022/09/26 02:26:56;;;;;;;0.00;0.00;;;;;;;7.63;84.10;98803.00;5023361;28;20140;-75
2022/09/26 02:29:22;;;;;;;0.10;0.10;;;;;;;7.58;84.44;98806.56;5040389;28;20049;-79
2022/09/26 02:31:55;;;;;;;0.10;0.10;;;;;;;7.16;84.14;98737.13;5024192;28;20171;-78
2022/09/26 02:34:24;;;;;;;0.10;0.10;;;;;;;7.56;84.18;98807.94;5034429;28;20404;-79
2022/09/26 02:36:52;;;;;;;0.10;0.10;;;;;;;7.52;84.59;98803.06;5061642;28;20438;-78
2022/09/26 02:39:18;;;;;;;0.10;0.10;;;;;;;7.54;84.25;98812.84;5044124;28;20599;-77
2022/09/26 02:42:03;;;;;;;0.10;0.10;;;;;;;7.48;84.43;98814.75;5062835;28;20139;-78
2022/09/26 02:44:46;;;;;;;0.10;0.10;;;;;;;7.49;84.75;98813.66;5059742;28;20041;-76
2022/09/26 02:47:53;;;;;;;0.13;0.13;;;;;;;7.51;84.70;98819.66;5060350;28;20124;-77
2022/09/26 02:50:30;;;;;;;;;;;;;;;7.45;84.54;98815.34;5061486;28;20123;-75
2022/09/26 02:53:06;;;;;;;0.10;0.10;;;;;;;7.42;84.41;98815.88;5060830;28;19928;-76
2022/09/26 02:55:50;;;;;;;0.00;0.00;;;;;;;7.46;84.48;98812.31;5041143;28;20500;-76
2022/09/26 02:58:25;;;;;;;0.10;0.10;;;;;;;7.47;84.38;98807.69;5059886;28;20548;-75
2022/09/26 03:00:59;;;;;;;0.10;0.10;;;;;;;7.49;84.44;98811.78;5061777;28;20044;-76
2022/09/26 03:03:32;;;;;;;0.10;0.10;;;;;;;7.56;84.19;98806.00;5045834;28;20550;-75
2022/09/26 03:06:02;;;;;;;0.10;0.10;;;;;;;7.56;83.66;98810.66;5060646;28;20499;-75
2022/09/26 03:08:36;;;;;;;0.10;0.10;;;;;;;7.49;83.26;98803.63;5059483;28;20036;-76
2022/09/26 03:11:06;;;;;;;0.10;0.10;;;;;;;7.46;83.48;98812.31;5060101;28;20152;-78
2022/09/26 03:13:34;;;;;;;0.10;0.10;;;;;;;7.44;83.44;98806.34;5042705;28;20040;-78
2022/09/26 03:16:01;;;;;;;0.03;0.03;;;;;;;7.42;83.73;98808.53;5058368;28;20075;-77
2022/09/26 03:18:34;;;;;;;0.10;0.10;;;;;;;7.40;83.64;98809.88;5044470;28;20586;-76
2022/09/26 03:21:01;;;;;;;0.10;0.10;;;;;;;7.34;83.66;98809.91;5048968;28;20041;-78
2022/09/26 03:23:28;;;;;;;0.10;0.10;;;;;;;7.35;84.00;98814.25;5048527;28;20045;-75
2022/09/26 03:26:01;;;;;;;0.10;0.10;;;;;;;7.35;83.76;98810.75;5041616;28;20098;-77
2022/09/26 03:28:28;;;;;;;0.00;0.00;;;;;;;7.42;84.18;98821.31;5009779;28;20442;-78
2022/09/26 03:30:54;;;;;;;0.10;0.10;;;;;;;7.43;83.61;98815.59;5043287;28;20037;-75
2022/09/26 03:33:25;;;;;;;0.00;0.00;;;;;;;7.43;83.66;98818.31;5044245;28;20041;-78
2022/09/26 03:35:52;;;;;;;0.10;0.10;;;;;;;7.42;83.72;98819.41;5040797;28;20115;-77
2022/09/26 03:38:21;;;;;;;0.08;0.08;;;;;;;7.40;83.78;98821.59;5041716;28;20075;-77
2022/09/26 03:40:57;;;;;;;0.10;0.10;;;;;;;7.33;83.84;98819.16;5044853;28;20552;-78
2022/09/26 03:43:49;;;;;;;0.10;0.10;;;;;;;7.35;84.32;98818.91;5041350;28;20067;-75
2022/09/26 03:46:16;;;;;;;0.10;0.10;;;;;;;7.38;84.50;98829.22;5042706;28;20049;-76
2022/09/26 03:48:42;;;;;;;0.10;0.10;;;;;;;7.41;84.39;98820.50;5029052;28;20512;-76
2022/09/26 03:51:12;;;;;;;0.00;0.00;;;;;;;7.47;84.43;98818.56;5045567;28;20067;-78
2022/09/26 03:53:41;;;;;;;0.10;0.10;;;;;;;7.55;84.32;98833.50;5023728;28;20057;-75
2022/09/26 03:56:13;;;;;;;0.10;0.10;;;;;;;7.55;84.51;98825.34;5038290;28;20049;-75
2022/09/26 03:58:41;;;;;;;0.10;0.10;;;;;;;7.58;84.40;98836.50;5025314;28;20032;-76
2022/09/26 04:01:09;;;;;;;0.10;0.10;;;;;;;7.62;84.28;98834.00;5023793;28;20548;-78
2022/09/26 04:03:37;;;;;;;0.10;0.10;;;;;;;7.61;84.05;98835.09;5027528;28;20049;-78
2022/09/26 04:06:03;;;;;;;;;;;;;;;7.57;84.07;98837.59;5027461;28;20041;-77
2022/09/26 04:08:32;;;;;;;0.10;0.10;;;;;;;7.52;83.88;98840.31;5007081;28;19925;-77
2022/09/26 04:11:01;;;;;;;0.10;0.10;;;;;;;7.46;84.14;98834.06;5044812;28;20041;-76
2022/09/26 04:13:28;;;;;;;0.10;0.10;;;;;;;7.40;84.52;98839.81;5036195;28;20068;-78
2022/09/26 04:15:55;;;;;;;0.10;0.10;;;;;;;7.39;84.72;98841.72;5037315;28;20405;-75
2022/09/26 04:18:22;;;;;;;0.10;0.10;;;;;;;7.36;84.81;98834.94;5018121;28;20055;-76
2022/09/26 04:20:49;;;;;;;;;;;;;;;7.31;84.66;98834.13;5034928;28;20049;-76
2022/09/26 04:23:15;;;;;;;0.10;0.10;;;;;;;7.34;84.72;98842.56;5043591;28;19994;-76
2022/09/26 04:25:41;;;;;;;0.08;0.08;;;;;;;7.38;84.46;98838.19;5046678;28;20049;-76
2022/09/26 04:28:09;;;;;;;0.10;0.10;;;;;;;7.41;84.65;98844.16;5047318;28;20459;-76
2022/09/26 04:30:36;;;;;;;0.10;0.10;;;;;;;7.42;84.82;98843.88;5045634;28;20396;-76
2022/09/26 04:33:02;;;;;;;0.10;0.10;;;;;;;7.45;84.74;98846.03;5042678;28;20052;-75
2022/09/26 04:35:31;;;;;;;0.10;0.10;;;;;;;7.44;83.86;98849.06;5050661;28;20052;-77
2022/09/26 04:37:57;;;;;;;0.10;0.10;;;;;;;7.44;83.44;98849.84;5060699;28;20388;-78
2022/09/26 04:40:24;;;;;;;0.10;0.10;;;;;;;7.45;83.49;98850.69;5060379;28;20048;-78
2022/09/26 04:43:10;;;;;;;0.10;0.10;;;;;;;7.43;83.25;98845.50;5030670;28;20063;-77
2022/09/26 04:45:40;;;;;;;0.10;0.10;;;;;;;7.48;83.17;98856.38;5059189;28;20427;-77
2022/09/26 04:48:07;;;;;;;0.10;0.10;;;;;;;7.52;83.51;98859.34;5039572;28;20044;-77
2022/09/26 04:50:48;;;;;;;0.10;0.10;;;;;;;7.51;83.75;98865.88;5061661;28;20069;-78
2022/09/26 04:53:16;;;;;;;0.10;0.10;;;;;;;7.43;84.06;98852.88;5035543;28;20152;-78
2022/09/26 04:55:58;;;;;;;0.10;0.10;;;;;;;7.48;84.55;98861.00;5062186;28;20435;-76
2022/09/26 04:58:25;;;;;;;0.10;0.10;;;;;;;7.55;84.30;98860.72;5051515;28;20048;-77
2022/09/26 05:00:52;;;;;;;0.15;0.10;;;;;;;7.54;83.87;98859.88;5027432;28;20067;-78
2022/09/26 05:03:28;;;;;;;0.10;0.10;;;;;;;7.62;83.79;98861.22;5045166;28;20481;-77
2022/09/26 05:05:55;;;;;;;0.10;0.10;;;;;;;7.63;83.54;98851.97;5042936;28;20053;-76
2022/09/26 05:08:22;;;;;;;0.10;0.10;;;;;;;7.71;83.32;98861.44;5015723;28;20095;-79
2022/09/26 05:10:52;;;;;;;0.10;0.10;;;;;;;7.76;82.65;98869.63;5054213;28;20551;-79
2022/09/26 05:13:18;;;;;;;0.10;0.10;;;;;;;7.73;82.64;98867.44;5025167;28;20048;-77
2022/09/26 05:15:46;;;;;;;0.10;0.10;;;;;;;7.81;82.22;98866.84;5011924;28;20562;-77
2022/09/26 05:18:12;;;;;;;0.10;0.10;;;;;;;7.80;81.55;98867.94;5024071;28;20090;-78
2022/09/26 05:20:39;;;;;;;0.20;0.20;;;;;;;7.87;81.23;98873.09;5058169;28;20051;-77
2022/09/26 05:23:07;;;;;;;0.10;0.10;;;;;;;7.92;81.18;98873.06;5049055;28;20062;-77
2022/09/26 05:26:19;;;;;;;0.10;0.10;;;;;;;7.93;81.16;98874.69;5066308;28;20036;-77
2022/09/26 05:28:27;;;;;;;0.13;0.10;;;;;;;8.01;81.31;98879.56;5065515;28;20118;-77
2022/09/26 05:30:55;;;;;;;0.10;0.10;;;;;;;8.07;81.26;98874.91;5065296;28;20052;-77
2022/09/26 05:33:21;;;;;;;0.10;0.10;;;;;;;8.12;81.18;98880.31;5065519;28;20044;-77
2022/09/26 05:35:52;;;;;;;0.10;0.10;;;;;;;8.12;81.38;98877.59;5048598;28;20052;-77
2022/09/26 05:38:18;;;;;;;0.20;0.10;;;;;;;8.08;80.81;98863.72;5065073;28;20502;-77
2022/09/26 05:40:57;;;;;;;0.10;0.10;;;;;;;8.23;80.97;98886.50;5018804;28;20040;-77
2022/09/26 05:43:26;;;;;;;0.10;0.10;;;;;;;8.35;80.19;98888.88;5038275;28;20385;-77
2022/09/26 05:45:57;;;;;;;0.10;0.10;;;;;;;8.30;80.21;98886.19;5043344;28;20041;-77
2022/09/26 05:48:28;;;;;;;0.10;0.10;;;;;;;8.23;79.98;98889.22;5046214;28;20516;-77
2022/09/26 05:50:55;;;;;;;0.10;0.10;;;;;;;8.12;80.25;98884.94;5028425;28;20420;-79
2022/09/26 05:53:22;;;;;;;0.10;0.10;;;;;;;8.12;80.14;98879.47;5029138;28;20047;-77
2022/09/26 05:55:49;;;;;;;0.10;0.10;;;;;;;8.16;80.10;98889.53;5047609;28;20040;-77
2022/09/26 05:58:36;;;;;;;0.10;0.10;;;;;;;8.25;79.37;98895.22;5053200;28;20048;-77
2022/09/26 06:01:31;;;;;;;0.10;0.10;;;;;;;8.20;79.19;98890.63;5022577;28;20056;-77
2022/09/26 06:04:05;;;;;;;0.10;0.10;;;;;;;8.25;78.98;98895.22;5050979;28;20326;-78
2022/09/26 06:06:43;;;;;;;0.10;0.10;;;;;;;8.36;78.51;98899.50;5048496;28;20055;-77
2022/09/26 06:09:11;;;;;;;0.10;0.10;;;;;;;8.46;78.37;98895.09;5034257;28;20048;-77
2022/09/26 06:12:03;;;;;;;0.10;0.10;;;;;;;8.56;78.26;98894.25;5042693;28;20111;-78
2022/09/26 06:14:30;;;;;;;0.10;0.10;;;;;;;8.63;78.08;98905.63;5054320;28;20045;-77
2022/09/26 06:16:59;;;;;;;0.10;0.10;;;;;;;8.56;77.54;98896.97;5045619;28;20633;-77
2022/09/26 06:19:26;;;;;;;0.15;0.10;;;;;;;8.42;77.58;98897.56;5008786;28;20067;-79
2022/09/26 06:21:52;;;;;;;0.10;0.10;;;;;;;8.42;77.51;98896.75;5005276;28;20470;-77
2022/09/26 06:24:19;;;;;;;0.10;0.10;;;;;;;8.27;78.21;98892.22;5028062;28;20777;-76
2022/09/26 06:26:46;;;;;;;0.10;0.10;;;;;;;8.29;78.30;98912.63;5043018;28;20139;-78
2022/09/26 06:29:13;;;;;;;0.10;0.10;;;;;;;8.28;78.58;98912.91;5041748;28;20067;-79
2022/09/26 06:31:40;;;;;;;0.10;0.10;;;;;;;8.27;78.82;98908.56;5020195;28;20148;-77
2022/09/26 06:34:11;;;;;;;0.10;0.10;;;;;;;8.33;78.97;98907.41;5036791;28;20080;-77
2022/09/26 06:36:58;;;;;;;0.10;0.10;;;;;;;8.27;78.54;98922.97;5034591;28;20072;-76
2022/09/26 06:39:34;;;;;;;0.10;0.10;;;;;;;8.15;78.51;98926.03;5038602;28;20060;-77
2022/09/26 06:42:01;;;;;;;0.10;0.10;;;;;;;8.14;78.61;98918.97;5040352;28;20060;-77
2022/09/26 06:44:29;;;;;;;0.35;0.13;;;;;;;8.10;78.56;98917.91;5023571;28;20049;-79
2022/09/26 06:47:29;;;;;;;0.10;0.10;;;;;;;8.00;78.91;98901.59;5043161;28;20068;-80
2022/09/26 06:50:11;;;;;;;0.10;0.10;;;;;;;8.13;79.14;98920.06;5043006;28;20056;-77
2022/09/26 06:52:42;;;;;;;0.10;0.10;;;;;;;8.21;79.14;98919.50;5024819;28;20095;-79
2022/09/26 06:55:10;;;;;;;0.10;0.10;;;;;;;8.16;78.67;98910.53;5049071;28;20567;-78
2022/09/26 06:57:38;;;;;;;;;;;;;;;8.27;78.63;98924.91;5048202;28;20061;-79
2022/09/26 07:00:07;;;;;;;0.15;0.15;;;;;;;8.30;78.28;98917.00;5045166;28;19933;-79
2022/09/26 07:02:55;;;;;;;0.10;0.10;;;;;;;8.36;78.13;98928.66;5034402;28;20080;-79
2022/09/26 07:05:42;;;;;;;0.10;0.10;;;;;;;8.44;77.65;98930.78;5044703;28;20545;-80
2022/09/26 07:08:09;;;;;;;0.10;0.10;;;;;;;8.54;77.33;98934.59;5025405;28;20049;-77
2022/09/26 07:10:36;;;;;;;0.10;0.10;;;;;;;8.58;77.52;98936.44;5042734;28;20731;-76
2022/09/26 07:13:05;;;;;;;0.10;0.10;;;;;;;8.58;77.02;98947.34;5046933;28;20055;-76
2022/09/26 07:15:33;;;;;;;1.08;0.22;;;;;;;8.50;76.56;98937.06;5043410;28;20044;-77
2022/09/26 07:18:05;;;;;;;0.10;0.10;;;;;;;8.43;76.85;98944.69;5029423;28;20049;-80
2022/09/26 07:20:52;;;;;;;0.10;0.10;;;;;;;8.25;78.09;98952.41;5044892;28;20498;-80
2022/09/26 07:23:41;;;;;;;0.20;0.20;;;;;;;8.11;79.80;98954.09;5042066;28;20052;-77
2022/09/26 07:26:07;;;;;;;0.10;0.10;;;;;;;7.97;80.72;98953.91;5013569;28;20049;-79
2022/09/26 07:28:35;;;;;;;0.10;0.10;;;;;;;7.97;81.90;98959.34;5046529;28;20053;-76
2022/09/26 07:31:01;;;;;;;0.10;0.10;;;;;;;7.93;81.48;98954.47;5028174;28;20048;-76
2022/09/26 07:33:42;;;;;;;0.10;0.10;;;;;;;7.93;81.60;98962.63;5046760;28;20525;-77
2022/09/26 07:36:11;;;;;;;;;;;;;;;8.12;81.70;98963.91;5047204;28;20179;-79
2022/09/26 07:38:38;;;;;;;0.10;0.10;;;;;;;8.16;80.80;98957.63;5024408;28;20020;-79
2022/09/26 07:41:09;;;;;;;0.10;0.10;;;;;;;8.19;80.38;98959.78;5044805;28;20064;-79
2022/09/26 07:43:35;;;;;;;0.10;0.10;;;;;;;8.21;80.21;98962.22;5041368;28;20136;-78
2022/09/26 07:51:55;;;;;;;0.10;0.10;;;;;;;8.64;78.83;98978.09;5032390;28;19925;-79
2022/09/26 07:54:23;;;;;;;0.10;0.10;;;;;;;8.61;78.26;98967.78;5025947;28;20122;-79
2022/09/26 07:57:09;;;;;;;0.10;0.10;;;;;;;8.64;78.10;98978.94;5040940;28;20140;-79
2022/09/26 07:59:53;;;;;;;0.20;0.20;;;;;;;8.82;78.04;98962.16;5045931;28;20049;-76
2022/09/26 08:02:41;;;;;;;0.20;0.20;;;;;;;9.11;77.59;98985.94;5050579;28;20052;-76
2022/09/26 08:05:10;;;;;;;0.10;0.10;;;;;;;9.16;77.34;98975.81;5026728;28;20055;-76
2022/09/26 08:07:39;;;;;;;0.20;0.20;;;;;;;9.19;76.15;98980.69;5028039;28;20547;-76
2022/09/26 08:10:18;;;;;;;0.20;0.20;;;;;;;9.22;75.96;98976.59;5048762;28;20044;-76
2022/09/26 08:13:03;;;;;;;0.20;0.20;;;;;;;9.20;76.07;98982.31;5042875;28;20147;-76
2022/09/26 08:15:48;;;;;;;0.20;0.20;;;;;;;9.35;75.95;98988.75;5045815;28;20068;-76
2022/09/26 08:18:22;;;;;;;0.13;0.13;;;;;;;9.57;74.53;98979.28;5011395;28;20053;-75
2022/09/26 08:20:48;;;;;;;0.10;0.10;;;;;;;9.55;73.10;98979.56;5027655;28;20376;-76
2022/09/26 08:23:16;;;;;;;0.20;0.20;;;;;;;9.59;73.10;98983.34;5042973;28;20396;-76
2022/09/26 08:25:45;;;;;;;0.20;0.20;;;;;;;9.66;72.80;98991.19;5045423;28;20198;-76
2022/09/26 08:28:29;;;;;;;0.20;0.20;;;;;;;9.74;72.63;98993.31;5029265;28;20471;-76
2022/09/26 08:30:56;;;;;;;0.15;0.15;;;;;;;9.89;72.67;98986.84;5028563;28;20045;-75
2022/09/26 08:33:23;;;;;;;0.55;0.22;;;;;;;10.05;71.99;98992.97;5043611;28;20049;-75
2022/09/26 08:35:50;;;;;;;0.22;0.22;;;;;;;10.10;70.64;98999.47;5041058;28;20491;-75
2022/09/26 08:38:50;;;;;;;0.20;0.20;;;;;;;10.03;70.05;98997.91;5042310;28;20051;-78
2022/09/26 08:42:06;;;;;;;0.20;0.20;;;;;;;10.14;69.70;99000.50;5045990;28;20107;-78
2022/09/26 08:44:55;;;;;;;0.20;0.20;;;;;;;10.16;69.15;99001.06;5026276;28;20080;-78
2022/09/26 08:47:48;;;;;;;0.20;0.20;;;;;;;10.12;69.07;99000.81;5043530;28;20056;-77
2022/09/26 08:50:34;;;;;;;0.25;0.20;;;;;;;10.24;68.74;99007.78;5027348;28;20045;-78
2022/09/26 08:53:04;;;;;;;0.20;0.20;;;;;;;10.15;68.51;99005.69;5022987;28;20057;-78
2022/09/26 08:55:39;;;;;;;0.10;0.10;;;;;;;9.90;69.59;99010.31;5042852;28;20053;-78
2022/09/26 08:58:14;;;;;;;0.20;0.20;;;;;;;9.79;70.69;99020.53;5018803;28;20543;-78
2022/09/26 09:00:40;;;;;;;0.20;0.20;;;;;;;9.65;71.93;99011.41;5027872;28;20147;-78
2022/09/26 09:03:23;;;;;;;0.20;0.20;;;;;;;9.42;73.70;99019.25;5040807;28;20053;-78
2022/09/26 09:05:53;;;;;;;0.10;0.10;;;;;;;9.11;74.76;99003.16;5048675;28;20467;-78
2022/09/26 09:08:23;;;;;;;0.10;0.10;;;;;;;8.97;75.99;99024.75;5026135;28;20048;-76
2022/09/26 09:11:18;;;;;;;0.10;0.10;;;;;;;8.73;77.07;99035.53;5043796;28;20140;-76
2022/09/26 09:14:08;;;;;;;0.10;0.10;;;;;;;8.61;77.53;99025.00;5025917;28;20051;-75
2022/09/26 09:17:08;;;;;;;0.10;0.10;;;;;;;8.62;77.96;99041.06;5048915;28;20044;-78
2022/09/26 09:20:00;;;;;;;0.10;0.10;;;;;;;8.78;77.62;99051.91;5033622;28;20048;-77
2022/09/26 09:23:04;;;;;;;0.10;0.10;;;;;;;8.99;76.84;99049.03;5032810;28;20044;-77
2022/09/26 09:25:42;;;;;;;0.10;0.10;;;;;;;9.04;76.54;99057.16;5037180;28;20159;-77
2022/09/26 09:28:25;;;;;;;0.20;0.20;;;;;;;9.25;76.05;99046.94;5038837;28;20052;-77
2022/09/26 09:30:57;;;;;;;0.10;0.10;;;;;;;9.56;75.29;99059.53;5039808;28;20063;-75
2022/09/26 09:33:36;;;;;;;0.10;0.10;;;;;;;9.69;74.20;99047.13;5042284;28;20045;-76
2022/09/26 09:36:30;;;;;;;0.20;0.20;;;;;;;9.55;73.94;99049.72;5044295;28;20094;-76
2022/09/26 09:39:25;;;;;;;0.10;0.10;;;;;;;9.32;75.10;99052.91;5045819;28;20555;-75
2022/09/26 09:42:05;;;;;;;0.10;0.10;;;;;;;9.32;75.73;99060.25;5029179;28;20147;-77
2022/09/26 09:44:43;;;;;;;0.15;0.15;;;;;;;9.12;75.63;99042.94;5039283;28;20090;-76
2022/09/26 09:47:13;;;;;;;0.10;0.10;;;;;;;9.23;75.55;99068.22;5012227;28;20052;-75
2022/09/26 09:49:40;;;;;;;0.10;0.10;;;;;;;9.10;75.46;99055.22;5036718;28;20080;-77
2022/09/26 09:52:20;;;;;;;0.10;0.10;;;;;;;9.13;75.63;99057.38;5043624;28;20106;-78
2022/09/26 09:55:05;;;;;;;0.20;0.20;;;;;;;9.17;76.12;99061.19;5036758;28;20045;-78
2022/09/26 09:57:42;;;;;;;0.15;0.15;;;;;;;9.27;75.31;99065.75;5040342;28;20060;-78
2022/09/26 10:00:14;;;;;;;0.10;0.10;;;;;;;9.22;74.87;99070.16;5008947;28;20373;-77
2022/09/26 10:03:00;;;;;;;0.20;0.20;;;;;;;9.22;74.06;99066.59;5040566;28;20118;-77
2022/09/26 10:05:37;;;;;;;0.10;0.10;;;;;;;9.28;74.37;99068.19;5037616;28;20048;-78
2022/09/26 10:08:12;;;;;;;0.10;0.10;;;;;;;9.42;73.37;99057.47;5036189;28;20072;-78
2022/09/26 10:11:12;;;;;;;0.10;0.10;;;;;;;9.43;72.89;99063.72;5040821;28;20052;-77
2022/09/26 10:14:16;;;;;;;0.10;0.10;;;;;;;9.33;71.86;99061.88;5050291;28;20176;-78
2022/09/26 10:17:19;;;;;;;0.10;0.10;;;;;;;9.43;71.72;99063.72;5039349;28;20526;-78
2022/09/26 10:20:34;;;;;;;0.10;0.10;;;;;;;9.34;72.27;99068.97;5044908;28;20085;-77
2022/09/26 10:23:05;;;;;;;0.20;0.20;;;;;;;9.24;72.21;99052.69;5041895;28;20075;-78
2022/09/26 10:25:31;;;;;;;0.20;0.15;;;;;;;9.44;72.07;99073.53;5045842;28;20056;-77
2022/09/26 10:27:59;;;;;;;0.22;0.20;;;;;;;9.42;71.72;99073.00;5043653;28;20052;-77
2022/09/26 10:30:31;;;;;;;0.10;0.10;;;;;;;9.38;71.71;99086.41;5048321;28;20304;-77
2022/09/26 10:33:24;;;;;;;0.15;0.10;;;;;;;9.23;71.63;99076.41;5032534;28;20048;-78
2022/09/26 10:36:03;;;;;;;0.10;0.10;;;;;;;9.16;72.00;99084.13;5030256;28;20053;-78
2022/09/26 10:38:31;;;;;;;0.20;0.20;;;;;;;9.12;72.47;99083.03;5046043;28;20571;-77
2022/09/26 10:41:05;;;;;;;0.10;0.10;;;;;;;9.22;72.38;99086.53;5032896;28;20048;-78
2022/09/26 10:43:36;;;;;;;0.10;0.10;;;;;;;9.40;72.04;99081.50;5039956;28;20191;-79
2022/09/26 10:46:25;;;;;;;0.10;0.10;;;;;;;9.56;71.42;99081.38;5057319;28;20053;-77
2022/09/26 10:49:14;;;;;;;0.20;0.20;;;;;;;9.51;71.49;99066.66;5048244;28;20057;-77
2022/09/26 10:52:07;;;;;;;0.10;0.10;;;;;;;9.77;71.03;99092.94;5036239;28;20067;-77
2022/09/26 10:54:41;;;;;;;0.30;0.30;;;;;;;9.90;70.85;99091.44;5046674;28;20339;-76
2022/09/26 10:57:18;;;;;;;0.43;0.25;;;;;;;10.00;70.30;99080.44;5029349;28;20051;-77
2022/09/26 10:59:48;;;;;;;;;;;;;;;10.27;69.55;99084.50;5040570;28;20547;-77
2022/09/26 11:02:20;;;;;;;0.20;0.20;;;;;;;10.46;68.92;99089.25;5011480;28;19932;-78
2022/09/26 11:07:46;;;;;;;0.40;0.20;;;;;;;10.62;66.17;99073.47;5040555;28;20047;-79
2022/09/26 11:10:45;;;;;;;0.20;0.20;;;;;;;10.49;66.37;99070.34;5027138;28;20053;-79
2022/09/26 11:13:25;;;;;;;0.20;0.20;;;;;;;10.56;65.89;99097.31;5044711;28;20388;-77
2022/09/26 11:16:00;;;;;;;0.20;0.20;;;;;;;10.50;66.32;99085.63;5021013;28;20537;-80
2022/09/26 11:18:50;;;;;;;0.20;0.20;;;;;;;10.72;65.96;99091.66;5045514;28;20049;-79
2022/09/26 11:21:27;;;;;;;0.20;0.20;;;;;;;10.69;65.88;99100.47;5016601;28;20045;-76
2022/09/26 11:24:02;;;;;;;0.20;0.20;;;;;;;10.44;66.79;99097.75;5047620;28;20052;-79
2022/09/26 11:26:34;;;;;;;0.10;0.10;;;;;;;10.21;67.62;99088.41;5046186;28;20137;-80
2022/09/26 11:29:08;;;;;;;0.25;0.10;;;;;;;10.04;68.66;99100.59;5011912;28;20132;-77
2022/09/26 11:31:48;;;;;;;0.10;0.10;;;;;;;9.89;69.33;99103.47;5042277;28;20053;-77
2022/09/26 11:34:35;;;;;;;0.10;0.10;;;;;;;9.65;70.84;99107.75;5045896;28;20041;-77
2022/09/26 11:37:29;;;;;;;0.45;0.20;;;;;;;9.35;73.26;99111.53;5042733;28;20060;-75
2022/09/26 11:40:16;;;;;;;0.10;0.10;;;;;;;9.08;75.12;99112.81;5042176;28;20132;-77
2022/09/26 11:42:59;;;;;;;0.20;0.20;;;;;;;8.90;77.03;99116.97;5038164;28;20048;-79
2022/09/26 11:45:40;;;;;;;0.13;0.13;;;;;;;8.86;78.00;99116.72;5035385;28;20087;-78
2022/09/26 11:49:14;;;;;;;0.20;0.20;;;;;;;8.91;78.87;99126.78;5039556;28;20132;-78
2022/09/26 11:52:28;;;;;;;0.20;0.20;;;;;;;8.89;79.47;99137.97;5041300;28;20069;-78
2022/09/26 11:55:05;;;;;;;0.20;0.20;;;;;;;8.91;79.88;99130.34;5043509;28;20165;-79
2022/09/26 11:57:41;;;;;;;0.20;0.20;;;;;;;8.98;80.89;99135.50;5041383;28;20064;-79
2022/09/26 12:00:23;;;;;;;0.20;0.20;;;;;;;9.06;81.81;99126.72;5010174;28;20045;-77
2022/09/26 12:03:22;;;;;;;0.20;0.20;;;;;;;9.05;82.20;99138.72;5045275;28;20047;-77
2022/09/26 12:05:53;;;;;;;0.10;0.10;;;;;;;8.96;80.74;99140.38;5035386;28;20140;-77
2022/09/26 12:08:37;;;;;;;0.10;0.10;;;;;;;8.82;80.65;99147.53;5046131;28;20056;-78
2022/09/26 12:11:14;;;;;;;0.10;0.10;;;;;;;8.71;82.23;99147.59;5040859;28;20080;-78
2022/09/26 12:13:52;;;;;;;0.10;0.10;;;;;;;8.64;82.82;99152.50;5045355;28;20056;-80
2022/09/26 12:16:25;;;;;;;0.20;0.20;;;;;;;8.74;82.98;99154.38;5024115;28;20862;-79
2022/09/26 12:19:04;;;;;;;0.20;0.20;;;;;;;8.92;82.18;99153.78;5044537;28;20049;-79
2022/09/26 12:21:39;;;;;;;0.10;0.10;;;;;;;9.05;80.87;99149.63;5028366;28;20147;-79
2022/09/26 12:24:22;;;;;;;0.10;0.10;;;;;;;9.14;80.54;99138.94;5045026;28;20063;-79
2022/09/26 12:26:56;;;;;;;0.10;0.10;;;;;;;9.26;79.61;99156.88;5036715;28;20536;-79
2022/09/26 12:29:35;;;;;;;0.10;0.10;;;;;;;9.13;79.58;99155.56;5042425;28;20532;-79
2022/09/26 12:32:19;;;;;;;0.10;0.10;;;;;;;9.06;79.84;99148.53;5025742;28;20068;-79